createdAt,value
2022-08-21T00:03:02.977Z,1009.41
2022-08-21T00:08:03.653Z,1009.41
2022-08-21T00:13:04.409Z,1009.4
2022-08-21T00:18:05.125Z,1009.36
2022-08-21T00:23:05.793Z,1009.24
2022-08-21T00:28:06.472Z,1009.25
2022-08-21T00:33:07.116Z,1009.3
2022-08-21T00:38:11.007Z,1009.23
2022-08-21T00:43:11.295Z,1009.31
2022-08-21T00:48:11.950Z,1009.27
2022-08-21T00:53:12.768Z,1009.26
2022-08-21T00:58:13.416Z,1009.27
2022-08-21T01:03:14.117Z,1009.36
2022-08-21T01:08:14.884Z,1009.32
2022-08-21T01:13:15.492Z,1009.34
2022-08-21T01:18:16.320Z,1009.4
2022-08-21T01:23:16.991Z,1009.34
2022-08-21T01:28:17.639Z,1009.41
2022-08-21T01:33:18.331Z,1009.48
2022-08-21T01:38:19.126Z,1009.49
2022-08-21T01:43:22.614Z,1009.41
2022-08-21T01:48:23.163Z,1009.36
2022-08-21T01:53:27.793Z,1009.42
2022-08-21T01:58:24.619Z,1009.4
2022-08-21T02:01:39.796Z,1009.35
2022-08-21T02:07:10.330Z,1009.34
2022-08-21T02:16:43.807Z,1009.38
2022-08-21T02:21:44.261Z,1009.35
2022-08-21T02:26:44.932Z,1009.3
2022-08-21T02:31:41.381Z,1009.27
2022-08-21T02:36:40.879Z,1009.24
2022-08-21T02:41:44.312Z,1009.31
2022-08-21T02:46:45.100Z,1009.36
2022-08-21T02:51:45.760Z,1009.3
2022-08-21T02:56:46.513Z,1009.38
2022-08-21T03:01:47.243Z,1009.44
2022-08-21T03:06:48.109Z,1009.37
2022-08-21T03:11:48.609Z,1009.39
2022-08-21T03:21:39.892Z,1009.37
2022-08-21T03:26:40.590Z,1009.39
2022-08-21T03:31:40.734Z,1009.32
2022-08-21T03:36:41.077Z,1009.33
2022-08-21T03:41:41.699Z,1009.33
2022-08-21T03:46:52.403Z,1009.43
2022-08-21T03:51:45.913Z,1009.33
2022-08-21T03:56:47.040Z,1009.32
2022-08-21T04:01:47.282Z,1009.44
2022-08-21T04:06:47.910Z,1009.44
2022-08-21T04:11:48.802Z,1009.51
2022-08-21T04:16:49.489Z,1009.6
2022-08-21T04:21:50.134Z,1009.58
2022-08-21T04:26:50.881Z,1009.5
2022-08-21T04:31:51.542Z,1009.46
2022-08-21T04:36:52.365Z,1009.66
2022-08-21T04:41:52.910Z,1009.54
2022-08-21T04:46:53.676Z,1009.52
2022-08-21T04:51:54.369Z,1009.64
2022-08-21T04:56:55.137Z,1009.59
2022-08-21T05:01:58.695Z,1009.71
2022-08-21T05:06:59.166Z,1009.61
2022-08-21T05:12:00.017Z,1009.59
2022-08-21T05:27:02.219Z,1009.79
2022-08-21T05:32:02.782Z,1009.81
2022-08-21T05:37:07.424Z,1009.82
2022-08-21T05:42:04.124Z,1009.78
2022-08-21T05:47:16.386Z,1009.79
2022-08-21T05:52:10.818Z,1009.82
2022-08-21T05:57:06.380Z,1009.74
2022-08-21T06:02:07.047Z,1009.85
2022-08-21T06:07:07.881Z,1009.75
2022-08-21T06:12:08.523Z,1009.81
2022-08-21T06:17:09.509Z,1009.84
2022-08-21T06:21:37.978Z,1009.87
2022-08-21T06:26:37.613Z,1009.89
2022-08-21T06:32:24.553Z,1009.99
2022-08-21T06:36:39.079Z,1010.05
2022-08-21T06:41:39.681Z,1009.97
2022-08-21T06:46:41.420Z,1009.88
2022-08-21T06:51:41.100Z,1009.97
2022-08-21T06:56:41.772Z,1009.96
2022-08-21T07:01:42.594Z,1009.82
2022-08-21T07:06:43.181Z,1009.9
2022-08-21T07:11:47.323Z,1009.85
2022-08-21T07:16:44.511Z,1009.84
2022-08-21T07:21:47.959Z,1009.85
2022-08-21T07:26:48.606Z,1009.81
2022-08-21T07:31:49.138Z,1009.93
2022-08-21T07:36:49.800Z,1009.8
2022-08-21T07:41:50.642Z,1009.82
2022-08-21T07:46:51.300Z,1009.88
2022-08-21T07:51:51.958Z,1009.91
2022-08-21T07:56:52.776Z,1009.85
2022-08-21T08:01:53.323Z,1009.9
2022-08-21T08:06:53.952Z,1009.84
2022-08-21T08:11:54.762Z,1009.83
2022-08-21T08:17:00.277Z,1009.8
2022-08-21T08:22:01.930Z,1009.82
2022-08-21T08:27:07.322Z,1009.91
2022-08-21T08:31:57.495Z,1009.92
2022-08-21T08:36:58.173Z,1009.83
2022-08-21T08:41:58.892Z,1009.81
2022-08-21T08:46:59.582Z,1009.9
2022-08-21T08:52:00.259Z,1009.84
2022-08-21T08:57:00.957Z,1009.79
2022-08-21T09:02:04.439Z,1009.68
2022-08-21T09:07:04.995Z,1009.77
2022-08-21T09:12:05.702Z,1009.75
2022-08-21T09:17:06.420Z,1009.72
2022-08-21T09:22:07.154Z,1009.75
2022-08-21T09:27:07.990Z,1009.8
2022-08-21T09:32:08.336Z,1009.77
2022-08-21T09:37:09.003Z,1009.71
2022-08-21T09:42:09.714Z,1009.76
2022-08-21T09:47:10.482Z,1009.79
2022-08-21T09:52:11.083Z,1009.72
2022-08-21T09:57:11.855Z,1009.76
2022-08-21T10:02:12.569Z,1009.74
2022-08-21T10:07:13.156Z,1009.74
2022-08-21T10:12:13.797Z,1009.8
2022-08-21T10:17:14.473Z,1009.78
2022-08-21T10:22:15.036Z,1009.77
2022-08-21T10:27:15.733Z,1009.85
2022-08-21T10:32:17.284Z,1009.79
2022-08-21T10:37:17.055Z,1009.84
2022-08-21T10:42:22.656Z,1009.75
2022-08-21T10:47:21.207Z,1009.78
2022-08-21T10:52:21.759Z,1009.84
2022-08-21T10:57:26.061Z,1009.79
2022-08-21T11:02:23.107Z,1009.75
2022-08-21T11:07:23.759Z,1009.86
2022-08-21T11:12:45.799Z,1009.79
2022-08-21T11:17:39.983Z,1009.81
2022-08-21T11:22:25.963Z,1009.81
2022-08-21T11:27:26.500Z,1009.85
2022-08-21T11:32:27.268Z,1009.82
2022-08-21T11:37:30.747Z,1009.74
2022-08-21T11:42:31.225Z,1009.75
2022-08-21T11:47:31.900Z,1009.83
2022-08-21T11:52:32.665Z,1009.79
2022-08-21T11:57:33.325Z,1009.76
2022-08-21T12:02:34.030Z,1009.83
2022-08-21T12:07:34.676Z,1009.71
2022-08-21T12:17:40.945Z,1009.69
2022-08-21T12:22:36.700Z,1009.7
2022-08-21T12:27:37.816Z,1009.61
2022-08-21T12:32:38.099Z,1009.65
2022-08-21T12:37:38.641Z,1009.56
2022-08-21T12:42:39.315Z,1009.6
2022-08-21T12:47:39.891Z,1009.37
2022-08-21T12:52:43.525Z,1009.36
2022-08-21T12:57:43.928Z,1009.47
2022-08-21T13:02:44.502Z,1009.33
2022-08-21T13:07:45.176Z,1009.3
2022-08-21T13:12:45.863Z,1009.35
2022-08-21T13:17:46.621Z,1009.33
2022-08-21T13:22:47.220Z,1009.28
2022-08-21T13:27:47.842Z,1009.22
2022-08-21T13:33:34.084Z,1009.3
2022-08-21T13:37:54.045Z,1009.39
2022-08-21T13:42:49.806Z,1009.37
2022-08-21T13:47:50.546Z,1009.38
2022-08-21T13:52:51.241Z,1009.33
2022-08-21T13:57:51.855Z,1009.36
2022-08-21T14:02:52.584Z,1009.28
2022-08-21T14:07:53.137Z,1009.26
2022-08-21T14:12:53.777Z,1009.29
2022-08-21T14:17:57.204Z,1009.28
2022-08-21T14:22:58.044Z,1009.27
2022-08-21T14:27:58.528Z,1009.15
2022-08-21T14:32:59.249Z,1009.21
2022-08-21T14:43:00.805Z,1009.21
2022-08-21T14:46:44.037Z,1009.25
2022-08-21T14:56:40.867Z,1009.22
2022-08-21T15:11:41.171Z,1009.27
2022-08-21T15:16:45.664Z,1009.32
2022-08-21T15:21:41.232Z,1009.34
2022-08-21T15:26:41.879Z,1009.31
2022-08-21T15:31:42.500Z,1009.28
2022-08-21T15:36:43.177Z,1009.32
2022-08-21T15:41:43.884Z,1009.28
2022-08-21T15:46:44.601Z,1009.29
2022-08-21T15:51:45.241Z,1009.28
2022-08-21T15:56:45.855Z,1009.27
2022-08-21T16:01:56.852Z,1009.25
2022-08-21T16:06:54.527Z,1009.29
2022-08-21T16:11:51.479Z,1009.3
2022-08-21T16:16:48.440Z,1009.25
2022-08-21T16:21:52.014Z,1009.28
2022-08-21T16:26:57.791Z,1009.27
2022-08-21T16:31:53.076Z,1009.29
2022-08-21T16:36:54.279Z,1009.37
2022-08-21T16:41:54.472Z,1009.4
2022-08-21T16:46:57.051Z,1009.39
2022-08-21T16:51:56.480Z,1009.35
2022-08-21T16:56:56.521Z,1009.2
2022-08-21T17:01:57.159Z,1009.32
2022-08-21T17:06:57.767Z,1009.29
2022-08-21T17:11:58.273Z,1009.25
2022-08-21T17:16:58.995Z,1009.31
2022-08-21T17:21:59.601Z,1009.31
2022-08-21T17:27:00.213Z,1009.25
2022-08-21T17:37:03.763Z,1009.31
2022-08-21T17:42:02.244Z,1009.3
2022-08-21T17:46:39.516Z,1009.33
2022-08-21T17:51:39.063Z,1009.2
2022-08-21T17:56:39.731Z,1009.28
2022-08-21T18:01:41.145Z,1009.37
2022-08-21T18:16:42.298Z,1009.5
2022-08-21T18:21:53.061Z,1009.48
2022-08-21T18:26:36.609Z,1009.5
2022-08-21T18:31:39.050Z,1009.6
2022-08-21T18:36:39.701Z,1009.59
2022-08-21T18:41:40.403Z,1009.53
2022-08-21T18:46:41.255Z,1009.72
2022-08-21T18:51:46.809Z,1009.74
2022-08-21T19:01:36.984Z,1009.71
2022-08-21T19:06:36.737Z,1009.65
2022-08-21T19:26:36.975Z,1009.71
2022-08-21T19:36:38.371Z,1009.73
2022-08-21T19:46:38.840Z,1009.79
2022-08-21T19:53:00.512Z,1009.73
2022-08-21T19:56:45.321Z,1009.71
2022-08-21T20:01:30.741Z,1009.71
2022-08-21T20:06:32.996Z,1009.7
2022-08-21T20:21:43.432Z,1009.83
2022-08-21T20:26:35.841Z,1009.78
2022-08-21T20:36:38.047Z,1009.79
2022-08-21T20:46:37.400Z,1009.75
2022-08-21T20:51:36.753Z,1009.86
2022-08-21T20:56:38.561Z,1009.92
2022-08-21T21:06:49.788Z,1009.89
2022-08-21T21:11:44.542Z,1009.85
2022-08-21T21:16:45.864Z,1009.85
2022-08-21T21:26:44.561Z,1009.89
2022-08-21T21:31:42.570Z,1009.91
2022-08-21T21:36:51.394Z,1009.91
2022-08-21T21:46:48.374Z,1009.87
2022-08-21T21:51:45.080Z,1010.01
2022-08-21T21:56:45.818Z,1009.97
2022-08-21T22:06:48.609Z,1010.02
2022-08-21T22:11:48.521Z,1010.04
2022-08-21T22:16:48.685Z,1010.04
2022-08-21T22:21:49.348Z,1010.04
2022-08-21T22:26:50.080Z,1010.02
2022-08-21T22:31:35.506Z,1010.06
2022-08-21T22:36:35.066Z,1010.01
2022-08-21T22:41:36.037Z,1010.1
2022-08-21T22:46:36.465Z,1010.04
2022-08-21T22:51:37.131Z,1010.06
2022-08-21T22:56:37.937Z,1010.12
2022-08-21T23:06:39.948Z,1010.17
2022-08-21T23:11:40.127Z,1010.1
2022-08-21T23:16:47.305Z,1010.18
2022-08-21T23:21:41.743Z,1010.15
2022-08-21T23:31:41.207Z,1010.15
2022-08-21T23:36:40.863Z,1010.04
2022-08-21T23:46:48.890Z,1010.06
2022-08-21T23:51:56.761Z,1010.04
2022-08-21T23:56:51.972Z,1010.09
